createdAt,value
2023-04-20T00:00:59.573Z,0.5507
2023-04-20T00:02:02.600Z,0.5364
2023-04-20T00:03:05.603Z,0.5326
2023-04-20T00:04:08.494Z,0.5384
2023-04-20T00:05:11.397Z,0.5382
2023-04-20T00:06:14.344Z,0.5377
2023-04-20T00:07:17.402Z,0.5330
2023-04-20T00:08:20.230Z,0.5227
2023-04-20T00:09:23.194Z,0.5245
2023-04-20T00:10:26.122Z,0.5321
2023-04-20T00:11:29.102Z,0.5280
2023-04-20T00:12:32.024Z,0.5359
2023-04-20T00:13:35.036Z,0.5396
2023-04-20T00:14:37.912Z,0.5175
2023-04-20T00:15:40.929Z,0.5200
2023-04-20T00:16:43.892Z,0.5327
2023-04-20T00:17:46.936Z,0.5227
2023-04-20T00:18:49.709Z,0.5224
2023-04-20T00:19:52.697Z,0.5249
2023-04-20T00:20:55.745Z,0.5192
2023-04-20T00:21:58.579Z,0.5221
2023-04-20T00:23:01.534Z,0.5442
2023-04-20T00:24:04.474Z,0.5557
2023-04-20T00:25:07.417Z,0.5527
2023-04-20T00:26:10.439Z,0.5566
2023-04-20T00:27:13.321Z,0.5537
2023-04-20T00:28:16.335Z,0.5375
2023-04-20T00:29:19.419Z,0.5229
2023-04-20T00:30:22.196Z,0.5361
2023-04-20T00:31:25.182Z,0.5346
2023-04-20T00:32:28.156Z,0.5209
2023-04-20T00:33:31.040Z,0.5195
2023-04-20T00:34:34.015Z,0.5323
2023-04-20T00:35:36.960Z,0.5261
2023-04-20T00:36:39.897Z,0.5234
2023-04-20T00:37:42.840Z,0.5261
2023-04-20T00:38:45.795Z,0.5340
2023-04-20T00:39:48.754Z,0.5339
2023-04-20T00:40:51.709Z,0.5348
2023-04-20T00:41:54.640Z,0.5390
2023-04-20T00:42:57.625Z,0.5353
2023-04-20T00:44:00.546Z,0.5308
2023-04-20T00:45:03.533Z,0.5444
2023-04-20T00:46:06.450Z,0.5550
2023-04-20T00:47:09.415Z,0.5413
2023-04-20T00:48:12.349Z,0.5519
2023-04-20T00:49:15.481Z,0.5494
2023-04-20T00:50:18.279Z,0.5295
2023-04-20T00:51:21.223Z,0.5049
2023-04-20T00:52:24.177Z,0.5001
2023-04-20T00:53:27.104Z,0.5119
2023-04-20T00:54:30.052Z,0.5211
2023-04-20T00:55:33.006Z,0.5152
2023-04-20T00:56:35.977Z,0.5052
2023-04-20T00:57:38.907Z,0.5108
2023-04-20T00:58:41.847Z,0.5152
2023-04-20T00:59:44.812Z,0.5130
2023-04-20T01:00:47.747Z,0.5211
2023-04-20T01:01:50.760Z,0.5281
2023-04-20T01:02:53.769Z,0.5296
2023-04-20T01:03:56.702Z,0.5266
2023-04-20T01:04:59.585Z,0.5243
2023-04-20T01:06:02.523Z,0.5258
2023-04-20T01:07:05.470Z,0.5266
2023-04-20T01:08:08.416Z,0.5484
2023-04-20T01:09:11.359Z,0.5440
2023-04-20T01:10:14.324Z,0.5374
2023-04-20T01:11:17.267Z,0.5409
2023-04-20T01:12:20.273Z,0.5337
2023-04-20T01:13:23.220Z,0.5264
2023-04-20T01:14:26.133Z,0.5276
2023-04-20T01:15:29.096Z,0.5281
2023-04-20T01:16:32.142Z,0.5145
2023-04-20T01:17:35.044Z,0.5028
2023-04-20T01:18:37.977Z,0.5180
2023-04-20T01:19:40.883Z,0.5403
2023-04-20T01:20:43.993Z,0.5493
2023-04-20T01:21:46.791Z,0.5434
2023-04-20T01:22:49.801Z,0.5521
2023-04-20T01:23:52.724Z,0.5346
2023-04-20T01:24:55.681Z,0.5219
2023-04-20T01:25:58.588Z,0.5156
2023-04-20T01:27:01.595Z,0.5187
2023-04-20T01:28:04.642Z,0.5317
2023-04-20T01:29:07.483Z,0.5496
2023-04-20T01:30:10.381Z,0.5399
2023-04-20T01:31:13.361Z,0.5466
2023-04-20T01:32:16.299Z,0.5396
2023-04-20T01:33:19.243Z,0.5383
2023-04-20T01:34:22.190Z,0.5327
2023-04-20T01:35:25.146Z,0.5263
2023-04-20T01:36:28.087Z,0.5212
2023-04-20T01:37:31.135Z,0.5163
2023-04-20T01:38:33.968Z,0.5182
2023-04-20T01:39:36.996Z,0.5305
2023-04-20T01:40:39.869Z,0.5486
2023-04-20T01:41:42.827Z,0.5446
2023-04-20T01:42:45.773Z,0.5406
2023-04-20T01:43:48.750Z,0.5533
2023-04-20T01:44:51.664Z,0.5595
2023-04-20T01:45:54.611Z,0.5572
2023-04-20T01:46:57.588Z,0.5653
2023-04-20T01:48:00.515Z,0.5492
2023-04-20T01:49:03.444Z,0.5343
2023-04-20T01:50:06.412Z,0.5275
2023-04-20T01:51:09.335Z,0.5260
2023-04-20T01:52:12.284Z,0.5163
2023-04-20T01:53:15.242Z,0.5298
2023-04-20T01:54:18.437Z,0.5331
2023-04-20T01:55:21.144Z,0.5293
2023-04-20T01:56:24.146Z,0.5337
2023-04-20T01:57:27.038Z,0.5387
2023-04-20T01:58:29.998Z,0.5591
2023-04-20T01:59:32.993Z,0.5579
2023-04-20T02:00:35.921Z,0.5521
2023-04-20T02:01:38.834Z,0.5298
2023-04-20T02:02:42.038Z,0.5263
2023-04-20T02:03:44.960Z,0.5398
2023-04-20T02:04:47.719Z,0.5458
2023-04-20T02:05:50.668Z,0.5250
2023-04-20T02:06:53.586Z,0.5227
2023-04-20T02:07:56.526Z,0.5239
2023-04-20T02:08:59.483Z,0.5306
2023-04-20T02:10:02.445Z,0.5318
2023-04-20T02:11:05.386Z,0.5201
2023-04-20T02:12:08.332Z,0.5028
2023-04-20T02:13:11.289Z,0.5336
2023-04-20T02:14:14.227Z,0.5283
2023-04-20T02:15:17.220Z,0.5131
2023-04-20T02:16:20.140Z,0.5038
2023-04-20T02:17:23.217Z,0.5170
2023-04-20T02:18:26.113Z,0.5123
2023-04-20T02:19:28.978Z,0.5267
2023-04-20T02:20:31.945Z,0.5195
2023-04-20T02:21:34.878Z,0.5232
2023-04-20T02:22:37.835Z,0.5282
2023-04-20T02:23:40.778Z,0.5358
2023-04-20T02:24:43.807Z,0.5375
2023-04-20T02:25:46.768Z,0.5248
2023-04-20T02:26:49.611Z,0.5219
2023-04-20T02:27:52.597Z,0.5414
2023-04-20T02:28:55.561Z,0.5339
2023-04-20T02:29:58.454Z,0.5116
2023-04-20T02:31:01.429Z,0.5009
2023-04-20T02:32:04.349Z,0.5175
2023-04-20T02:33:07.299Z,0.5308
2023-04-20T02:34:10.255Z,0.5270
2023-04-20T02:35:13.192Z,0.5071
2023-04-20T02:36:16.158Z,0.5074
2023-04-20T02:37:19.089Z,0.5146
2023-04-20T02:38:22.042Z,0.5069
2023-04-20T02:39:25.004Z,0.5262
2023-04-20T02:40:27.933Z,0.5310
2023-04-20T02:41:30.896Z,0.5243
2023-04-20T02:42:33.835Z,0.5450
2023-04-20T02:43:36.788Z,0.5418
2023-04-20T02:44:39.739Z,0.5292
2023-04-20T02:45:42.677Z,0.5115
2023-04-20T02:46:45.690Z,0.5115
2023-04-20T02:47:48.677Z,0.5117
2023-04-20T02:48:51.540Z,0.4992
2023-04-20T02:49:54.477Z,0.5180
2023-04-20T02:50:57.438Z,0.5344
2023-04-20T02:52:00.403Z,0.5349
2023-04-20T02:53:03.342Z,0.5213
2023-04-20T02:54:06.331Z,0.5236
2023-04-20T02:55:09.273Z,0.5292
2023-04-20T02:56:12.192Z,0.5207
2023-04-20T02:57:15.173Z,0.5122
2023-04-20T02:58:18.084Z,0.5180
2023-04-20T02:59:21.044Z,0.5268
2023-04-20T03:00:23.984Z,0.5239
2023-04-20T03:01:26.983Z,0.5168
2023-04-20T03:02:30.195Z,0.5277
2023-04-20T03:03:33.149Z,0.5140
2023-04-20T03:04:35.848Z,0.5175
2023-04-20T03:05:38.856Z,0.5323
2023-04-20T03:06:41.691Z,0.5495
2023-04-20T03:07:44.772Z,0.5533
2023-04-20T03:08:47.680Z,0.5310
2023-04-20T03:09:50.620Z,0.5317
2023-04-20T03:10:53.571Z,0.5275
2023-04-20T03:11:56.537Z,0.5133
2023-04-20T03:12:59.536Z,0.5114
2023-04-20T03:14:02.428Z,0.5163
2023-04-20T03:15:05.370Z,0.5235
2023-04-20T03:16:08.425Z,0.5284
2023-04-20T03:17:11.260Z,0.5297
2023-04-20T03:18:14.310Z,0.5231
2023-04-20T03:19:17.382Z,0.5081
2023-04-20T03:20:20.124Z,0.5117
2023-04-20T03:21:23.054Z,0.5086
2023-04-20T03:22:26.005Z,0.5068
2023-04-20T03:23:28.951Z,0.5021
2023-04-20T03:24:31.962Z,0.5128
2023-04-20T03:25:34.880Z,0.5168
2023-04-20T03:26:37.800Z,0.5151
2023-04-20T03:27:40.815Z,0.5192
2023-04-20T03:28:43.713Z,0.5352
2023-04-20T03:29:46.627Z,0.5239
2023-04-20T03:30:49.577Z,0.5103
2023-04-20T03:31:52.553Z,0.5058
2023-04-20T03:32:55.537Z,0.5003
2023-04-20T03:33:58.483Z,0.5082
2023-04-20T03:35:01.383Z,0.5192
2023-04-20T03:36:04.314Z,0.5187
2023-04-20T03:37:07.265Z,0.5106
2023-04-20T03:38:10.205Z,0.5110
2023-04-20T03:39:13.182Z,0.5257
2023-04-20T03:40:16.131Z,0.5352
2023-04-20T03:41:19.079Z,0.5406
2023-04-20T03:42:22.030Z,0.5529
2023-04-20T03:43:24.966Z,0.5425
2023-04-20T03:44:27.962Z,0.5439
2023-04-20T03:45:30.899Z,0.5396
2023-04-20T03:46:33.804Z,0.5409
2023-04-20T03:47:36.816Z,0.5359
2023-04-20T03:48:39.713Z,0.5333
2023-04-20T03:49:42.669Z,0.5369
2023-04-20T03:50:45.630Z,0.5509
2023-04-20T03:51:48.574Z,0.5436
2023-04-20T03:52:51.526Z,0.5606
2023-04-20T03:53:54.480Z,0.5648
2023-04-20T03:54:57.406Z,0.5626
2023-04-20T03:56:00.396Z,0.5373
2023-04-20T03:57:03.299Z,0.5242
2023-04-20T03:58:06.255Z,0.5272
2023-04-20T03:59:09.205Z,0.5206
2023-04-20T04:00:12.160Z,0.5193
2023-04-20T04:01:15.247Z,0.5285
2023-04-20T04:02:18.165Z,0.5269
2023-04-20T04:03:21.157Z,0.5232
2023-04-20T04:04:24.180Z,0.5176
2023-04-20T04:05:27.100Z,0.5075
2023-04-20T04:06:29.871Z,0.4936
2023-04-20T04:07:32.793Z,0.5053
2023-04-20T04:08:35.774Z,0.5110
2023-04-20T04:09:38.711Z,0.5070
2023-04-20T04:10:41.655Z,0.5095
2023-04-20T04:11:44.612Z,0.5117
2023-04-20T04:12:47.559Z,0.5120
2023-04-20T04:13:50.505Z,0.5231
2023-04-20T04:14:53.451Z,0.5283
2023-04-20T04:15:56.396Z,0.5283
2023-04-20T04:16:59.367Z,0.5361
2023-04-20T04:18:02.358Z,0.5451
2023-04-20T04:19:05.234Z,0.5592
2023-04-20T04:20:08.185Z,0.5618
2023-04-20T04:21:11.144Z,0.5436
2023-04-20T04:22:14.130Z,0.5550
2023-04-20T04:23:17.076Z,0.5580
2023-04-20T04:24:20.036Z,0.5750
2023-04-20T04:25:22.936Z,0.5672
2023-04-20T04:26:25.874Z,0.5589
2023-04-20T04:27:28.863Z,0.5505
2023-04-20T04:28:31.786Z,0.5544
2023-04-20T04:29:34.721Z,0.5568
2023-04-20T04:30:37.676Z,0.5567
2023-04-20T04:31:40.696Z,0.5365
2023-04-20T04:32:43.656Z,0.5285
2023-04-20T04:33:46.705Z,0.5530
2023-04-20T04:34:49.546Z,0.5631
2023-04-20T04:35:52.426Z,0.5407
2023-04-20T04:36:55.377Z,0.5263
2023-04-20T04:37:58.329Z,0.5208
2023-04-20T04:39:01.271Z,0.5201
2023-04-20T04:40:04.473Z,0.5080
2023-04-20T04:41:07.158Z,0.5280
2023-04-20T04:42:10.149Z,0.5395
2023-04-20T04:43:13.062Z,0.5538
2023-04-20T04:44:16.008Z,0.5618
2023-04-20T04:45:18.956Z,0.5420
2023-04-20T04:46:21.901Z,0.5318
2023-04-20T04:47:24.954Z,0.5486
2023-04-20T04:48:27.850Z,0.5355
2023-04-20T04:49:30.756Z,0.5382
2023-04-20T04:50:33.688Z,0.5305
2023-04-20T04:51:36.664Z,0.5548
2023-04-20T04:52:39.592Z,0.5590
2023-04-20T04:53:42.542Z,0.5268
2023-04-20T04:54:45.517Z,0.5361
2023-04-20T04:55:48.444Z,0.5303
2023-04-20T04:56:51.414Z,0.5394
2023-04-20T04:57:54.367Z,0.5632
2023-04-20T04:58:57.294Z,0.5609
2023-04-20T05:00:00.307Z,0.5405
2023-04-20T05:01:03.189Z,0.5440
2023-04-20T05:02:06.218Z,0.5315
2023-04-20T05:03:09.197Z,0.5203
2023-04-20T05:04:12.227Z,0.5147
2023-04-20T05:05:14.966Z,0.5266
2023-04-20T05:06:17.957Z,0.5382
2023-04-20T05:07:20.868Z,0.5368
2023-04-20T05:08:23.829Z,0.5457
2023-04-20T05:09:26.744Z,0.5233
2023-04-20T05:10:29.708Z,0.5137
2023-04-20T05:11:32.712Z,0.5087
2023-04-20T05:12:35.601Z,0.5205
2023-04-20T05:13:38.636Z,0.5335
2023-04-20T05:14:41.503Z,0.5265
2023-04-20T05:15:44.481Z,0.5340
2023-04-20T05:16:47.529Z,0.5067
2023-04-20T05:17:50.376Z,0.5003
2023-04-20T05:18:53.314Z,0.5063
2023-04-20T05:19:56.272Z,0.5079
2023-04-20T05:20:59.234Z,0.5036
2023-04-20T05:22:02.148Z,0.5030
2023-04-20T05:23:05.339Z,0.5053
2023-04-20T05:24:08.057Z,0.5157
2023-04-20T05:25:13.265Z,0.5190
2023-04-20T05:26:13.984Z,0.5077
2023-04-20T05:27:16.899Z,0.4914
2023-04-20T05:28:19.910Z,0.4896
2023-04-20T05:29:22.822Z,0.4927
2023-04-20T05:30:25.742Z,0.4816
2023-04-20T05:31:28.703Z,0.4862
2023-04-20T05:32:31.647Z,0.4880
2023-04-20T05:33:34.622Z,0.4944
2023-04-20T05:34:37.631Z,0.5026
2023-04-20T05:35:40.520Z,0.5104
2023-04-20T05:36:43.440Z,0.5083
2023-04-20T05:37:46.391Z,0.5169
2023-04-20T05:38:49.336Z,0.5028
2023-04-20T05:39:52.340Z,0.5108
2023-04-20T05:40:55.255Z,0.5162
2023-04-20T05:41:58.174Z,0.5312
2023-04-20T05:43:01.154Z,0.5327
2023-04-20T05:44:04.066Z,0.5289
2023-04-20T05:45:07.094Z,0.5330
2023-04-20T05:46:10.003Z,0.5409
2023-04-20T05:47:12.908Z,0.5335
2023-04-20T05:48:15.872Z,0.5398
2023-04-20T05:49:19.007Z,0.5546
2023-04-20T05:50:21.765Z,0.5395
2023-04-20T05:51:24.769Z,0.5362
2023-04-20T05:52:27.657Z,0.5233
2023-04-20T05:53:30.608Z,0.5171
2023-04-20T05:54:33.573Z,0.5231
2023-04-20T05:55:36.517Z,0.5261
2023-04-20T05:56:39.460Z,0.5311
2023-04-20T05:57:42.465Z,0.5328
2023-04-20T05:58:45.383Z,0.5360
2023-04-20T05:59:48.326Z,0.5346
2023-04-20T06:00:51.278Z,0.5475
2023-04-20T06:01:54.303Z,0.5417
2023-04-20T06:02:57.335Z,0.5615
2023-04-20T06:04:00.503Z,0.5631
2023-04-20T06:05:03.138Z,0.5421
2023-04-20T06:06:06.020Z,0.5398
2023-04-20T06:07:09.000Z,0.5278
2023-04-20T06:08:12.142Z,0.5387
2023-04-20T06:09:14.905Z,0.5274
2023-04-20T06:10:17.804Z,0.5153
2023-04-20T06:11:20.817Z,0.4998
2023-04-20T06:12:25.688Z,0.4855
2023-04-20T06:13:26.649Z,0.4878
2023-04-20T06:14:29.722Z,0.5013
2023-04-20T06:15:32.568Z,0.5145
2023-04-20T06:16:35.614Z,0.5109
2023-04-20T06:17:38.615Z,0.5046
2023-04-20T06:18:41.392Z,0.5279
2023-04-20T06:19:44.363Z,0.5299
2023-04-20T06:20:47.293Z,0.5128
2023-04-20T06:21:50.302Z,0.5290
2023-04-20T06:22:53.202Z,0.5582
2023-04-20T06:23:56.172Z,0.5419
2023-04-20T06:24:59.094Z,0.5620
2023-04-20T06:26:02.054Z,0.5658
2023-04-20T06:27:04.991Z,0.5602
2023-04-20T06:28:07.969Z,0.5446
2023-04-20T06:29:10.904Z,0.5508
2023-04-20T06:30:13.878Z,0.5427
2023-04-20T06:31:16.814Z,0.5432
2023-04-20T06:32:19.860Z,0.5508
2023-04-20T06:33:22.709Z,0.5477
2023-04-20T06:34:25.641Z,0.5612
2023-04-20T06:35:28.589Z,0.5575
2023-04-20T06:36:31.555Z,0.5640
2023-04-20T06:37:34.496Z,0.5218
2023-04-20T06:38:37.490Z,0.5783
2023-04-20T06:39:40.390Z,0.5999
2023-04-20T06:40:43.397Z,0.5394
2023-04-20T06:41:46.311Z,0.5008
2023-04-20T06:42:49.279Z,0.4885
2023-04-20T06:43:52.219Z,0.5060
2023-04-20T06:44:55.294Z,0.5388
2023-04-20T06:45:58.097Z,0.5628
2023-04-20T06:47:01.109Z,0.5602
2023-04-20T06:48:04.039Z,0.5418
2023-04-20T06:49:06.987Z,0.5569
2023-04-20T06:50:10.290Z,0.6478
2023-04-20T06:51:12.997Z,0.6580
2023-04-20T06:52:15.806Z,0.6886
2023-04-20T06:53:18.784Z,0.6741
2023-04-20T06:54:21.727Z,0.6520
2023-04-20T06:55:24.665Z,0.6419
2023-04-20T06:56:27.610Z,0.6386
2023-04-20T06:57:30.581Z,0.6250
2023-04-20T06:58:33.536Z,0.6249
2023-04-20T06:59:36.482Z,0.6016
2023-04-20T07:00:39.461Z,0.5998
2023-04-20T07:01:42.428Z,0.5885
2023-04-20T07:02:45.416Z,0.5675
2023-04-20T07:03:48.553Z,0.5514
2023-04-20T07:04:51.326Z,0.5275
2023-04-20T07:05:54.212Z,0.5265
2023-04-20T07:06:57.130Z,0.5367
2023-04-20T07:08:00.147Z,0.5299
2023-04-20T07:09:03.022Z,0.5380
2023-04-20T07:10:05.977Z,0.5152
2023-04-20T07:11:08.965Z,0.5141
2023-04-20T07:12:11.883Z,0.5193
2023-04-20T07:13:14.828Z,0.5303
2023-04-20T07:14:17.766Z,0.5238
2023-04-20T07:15:20.856Z,0.5070
2023-04-20T07:16:23.773Z,0.5049
2023-04-20T07:17:26.726Z,0.5480
2023-04-20T07:18:29.655Z,0.5431
2023-04-20T07:19:32.578Z,0.5364
2023-04-20T07:20:35.557Z,0.5373
2023-04-20T07:21:38.482Z,0.5463
2023-04-20T07:22:41.468Z,0.5249
2023-04-20T07:23:45.230Z,0.5107
2023-04-20T07:24:47.348Z,0.5262
2023-04-20T07:25:50.298Z,0.5298
2023-04-20T07:26:53.306Z,0.5185
2023-04-20T07:27:56.205Z,0.5146
2023-04-20T07:28:59.150Z,0.5139
2023-04-20T07:30:02.120Z,0.5084
2023-04-20T07:31:05.048Z,0.5182
2023-04-20T07:32:08.003Z,0.5388
2023-04-20T07:33:11.017Z,0.5414
2023-04-20T07:34:13.899Z,0.5531
2023-04-20T07:35:16.872Z,0.5597
2023-04-20T07:36:19.817Z,0.5536
2023-04-20T07:37:23.067Z,0.5583
2023-04-20T07:38:25.741Z,0.5517
2023-04-20T07:39:28.713Z,0.5329
2023-04-20T07:40:31.609Z,0.5273
2023-04-20T07:41:34.550Z,0.5254
2023-04-20T07:42:37.610Z,0.5215
2023-04-20T07:43:40.474Z,0.5249
2023-04-20T07:44:43.391Z,0.5372
2023-04-20T07:45:46.466Z,0.5260
2023-04-20T07:46:49.307Z,0.5169
2023-04-20T07:47:52.299Z,0.5099
2023-04-20T07:48:55.218Z,0.5218
2023-04-20T07:49:58.161Z,0.5374
2023-04-20T07:51:01.104Z,0.5357
2023-04-20T07:52:15.254Z,0.5274
2023-04-20T07:53:07.001Z,0.5090
2023-04-20T07:54:09.961Z,0.5137
2023-04-20T07:55:12.936Z,0.5163
2023-04-20T07:56:15.941Z,0.5061
2023-04-20T07:57:18.798Z,0.5118
2023-04-20T07:58:21.768Z,0.5163
2023-04-20T07:59:24.729Z,0.5137
2023-04-20T08:00:27.660Z,0.5203
2023-04-20T08:01:30.607Z,0.5082
2023-04-20T08:02:33.722Z,0.5100
2023-04-20T08:03:36.674Z,0.5031
2023-04-20T08:04:39.842Z,0.5089
2023-04-20T08:05:42.425Z,0.5303
2023-04-20T08:06:45.367Z,0.5471
2023-04-20T08:07:48.570Z,0.5255
2023-04-20T08:08:51.298Z,0.5222
2023-04-20T08:09:54.222Z,0.5225
2023-04-20T08:10:57.210Z,0.5308
2023-04-20T08:12:00.170Z,0.5482
2023-04-20T08:13:03.092Z,0.5523
2023-04-20T08:14:06.034Z,0.5505
2023-04-20T08:15:09.068Z,0.5279
2023-04-20T08:16:11.942Z,0.4991
2023-04-20T08:17:14.931Z,0.4966
2023-04-20T08:18:18.664Z,0.5153
2023-04-20T08:19:20.834Z,0.5199
2023-04-20T08:20:23.926Z,0.5227
2023-04-20T08:21:26.729Z,0.5286
2023-04-20T08:22:29.621Z,0.5457
2023-04-20T08:23:32.724Z,0.5428
2023-04-20T08:24:35.525Z,0.5467
2023-04-20T08:25:38.478Z,0.5497
2023-04-20T08:26:41.405Z,0.5350
2023-04-20T08:27:44.387Z,0.5375
2023-04-20T08:28:47.297Z,0.5528
2023-04-20T08:29:50.270Z,0.5455
2023-04-20T08:30:53.244Z,0.5286
2023-04-20T08:31:56.215Z,0.5323
2023-04-20T08:32:59.167Z,0.5248
2023-04-20T08:34:02.058Z,0.5244
2023-04-20T08:35:05.019Z,0.5291
2023-04-20T08:36:08.000Z,0.5248
2023-04-20T08:37:10.937Z,0.5317
2023-04-20T08:38:17.983Z,0.5248
2023-04-20T08:39:16.817Z,0.5164
2023-04-20T08:40:19.843Z,0.5276
2023-04-20T08:41:22.714Z,0.5287
2023-04-20T08:42:25.701Z,0.5307
2023-04-20T08:43:28.663Z,0.5355
2023-04-20T08:44:31.574Z,0.5349
2023-04-20T08:45:34.553Z,0.5174
2023-04-20T08:46:37.550Z,0.5086
2023-04-20T08:47:40.496Z,0.5202
2023-04-20T08:48:43.475Z,0.5224
2023-04-20T08:49:46.371Z,0.5089
2023-04-20T08:50:49.289Z,0.5067
2023-04-20T08:51:52.242Z,0.5293
2023-04-20T08:52:55.195Z,0.5196
2023-04-20T08:53:58.153Z,0.5216
2023-04-20T08:55:01.332Z,0.5528
2023-04-20T08:56:04.068Z,0.5636
2023-04-20T08:57:06.986Z,0.5200
2023-04-20T08:58:09.945Z,0.5235
2023-04-20T08:59:12.948Z,0.5098
2023-04-20T09:00:15.852Z,0.4944
2023-04-20T09:01:25.441Z,0.5079
2023-04-20T09:02:21.853Z,0.5209
2023-04-20T09:03:24.855Z,0.5314
2023-04-20T09:04:28.189Z,0.5300
2023-04-20T09:05:30.652Z,0.5306
2023-04-20T09:06:33.564Z,0.5122
2023-04-20T09:07:36.565Z,0.5023
2023-04-20T09:08:39.457Z,0.5243
2023-04-20T09:09:42.390Z,0.5175
2023-04-20T09:10:45.523Z,0.5112
2023-04-20T09:11:48.296Z,0.5198
2023-04-20T09:12:51.260Z,0.5258
2023-04-20T09:13:54.208Z,0.5237
2023-04-20T09:14:57.189Z,0.5196
2023-04-20T09:16:00.096Z,0.5342
2023-04-20T09:17:03.053Z,0.5420
2023-04-20T09:18:06.012Z,0.5249
2023-04-20T09:19:09.336Z,0.5193
2023-04-20T09:20:11.919Z,0.5191
2023-04-20T09:21:14.853Z,0.5229
2023-04-20T09:22:17.805Z,0.5159
2023-04-20T09:23:20.771Z,0.5475
2023-04-20T09:24:23.736Z,0.5326
2023-04-20T09:25:28.914Z,0.5100
2023-04-20T09:26:29.597Z,0.5070
2023-04-20T09:27:32.633Z,0.5110
2023-04-20T09:28:35.501Z,0.5101
2023-04-20T09:29:38.510Z,0.5006
2023-04-20T09:30:41.433Z,0.4995
2023-04-20T09:31:44.474Z,0.5064
2023-04-20T09:32:47.635Z,0.5382
2023-04-20T09:33:50.263Z,0.5311
2023-04-20T09:34:53.194Z,0.5259
2023-04-20T09:35:56.144Z,0.5272
2023-04-20T09:36:59.106Z,0.5301
2023-04-20T09:38:02.052Z,0.5067
2023-04-20T09:39:05.007Z,0.5080
2023-04-20T09:40:07.941Z,0.5241
2023-04-20T09:41:10.882Z,0.5368
2023-04-20T09:42:14.046Z,0.5360
2023-04-20T09:43:16.807Z,0.5326
2023-04-20T09:44:19.918Z,0.5369
2023-04-20T09:45:22.699Z,0.5581
2023-04-20T09:46:26.036Z,0.5484
2023-04-20T09:47:28.659Z,0.5423
2023-04-20T09:48:32.239Z,0.5296
2023-04-20T09:49:34.505Z,0.5324
2023-04-20T09:50:48.355Z,0.5355
2023-04-20T09:51:40.373Z,0.5458
2023-04-20T09:52:43.383Z,0.5365
2023-04-20T09:53:46.287Z,0.5413
2023-04-20T09:54:49.258Z,0.5148
2023-04-20T09:55:52.339Z,0.5268
2023-04-20T09:56:55.122Z,0.5356
2023-04-20T09:57:58.091Z,0.5324
2023-04-20T09:59:01.049Z,0.5493
2023-04-20T10:00:03.995Z,0.5181
2023-04-20T10:01:06.963Z,0.5139
2023-04-20T10:02:09.915Z,0.5105
2023-04-20T10:03:13.024Z,0.5097
2023-04-20T10:04:16.033Z,0.5228
2023-04-20T10:05:18.732Z,0.5340
2023-04-20T10:06:21.645Z,0.5270
2023-04-20T10:07:24.600Z,0.5077
2023-04-20T10:08:27.554Z,0.5051
2023-04-20T10:09:30.606Z,0.4929
2023-04-20T10:10:33.441Z,0.4891
2023-04-20T10:11:48.943Z,0.4928
2023-04-20T10:12:39.350Z,0.5075
2023-04-20T10:13:42.294Z,0.4992
2023-04-20T10:14:45.255Z,0.5018
2023-04-20T10:15:48.200Z,0.5159
2023-04-20T10:16:51.140Z,0.5177
2023-04-20T10:17:54.183Z,0.5270
2023-04-20T10:18:57.077Z,0.5310
2023-04-20T10:20:00.043Z,0.5087
2023-04-20T10:21:02.925Z,0.4907
2023-04-20T10:22:06.003Z,0.4950
2023-04-20T10:23:08.828Z,0.5056
2023-04-20T10:24:11.806Z,0.5256
2023-04-20T10:25:14.719Z,0.5046
2023-04-20T10:26:17.658Z,0.5116
2023-04-20T10:27:20.617Z,0.5045
2023-04-20T10:28:23.559Z,0.5207
2023-04-20T10:29:26.489Z,0.5112
2023-04-20T10:30:29.443Z,0.5240
2023-04-20T10:31:32.465Z,0.5275
2023-04-20T10:32:35.386Z,0.5171
2023-04-20T10:33:38.284Z,0.5271
2023-04-20T10:34:41.231Z,0.5140
2023-04-20T10:35:45.907Z,0.5063
2023-04-20T10:36:47.342Z,0.5036
2023-04-20T10:37:50.101Z,0.4963
2023-04-20T10:38:53.157Z,0.5057
2023-04-20T10:39:55.967Z,0.5047
2023-04-20T10:40:58.922Z,0.4958
2023-04-20T10:42:01.872Z,0.5099
2023-04-20T10:43:04.813Z,0.5186
2023-04-20T10:44:07.799Z,0.5105
2023-04-20T10:45:10.733Z,0.5172
2023-04-20T10:46:13.681Z,0.5333
2023-04-20T10:47:16.594Z,0.5343
2023-04-20T10:48:19.610Z,0.5219
2023-04-20T10:49:22.525Z,0.5102
2023-04-20T10:50:25.443Z,0.5020
2023-04-20T10:51:28.391Z,0.4962
2023-04-20T10:52:31.341Z,0.5176
2023-04-20T10:53:34.290Z,0.5057
2023-04-20T10:54:37.245Z,0.4906
2023-04-20T10:55:40.210Z,0.4988
2023-04-20T10:56:43.128Z,0.5041
2023-04-20T10:57:46.097Z,0.5138
2023-04-20T10:58:49.032Z,0.5140
2023-04-20T10:59:51.990Z,0.5094
2023-04-20T11:00:54.976Z,0.5040
2023-04-20T11:01:57.892Z,0.4955
2023-04-20T11:03:00.858Z,0.4905
2023-04-20T11:04:03.761Z,0.5107
2023-04-20T11:05:06.772Z,0.5173
2023-04-20T11:06:09.658Z,0.5065
2023-04-20T11:07:12.608Z,0.5000
2023-04-20T11:08:15.570Z,0.5117
2023-04-20T11:09:18.803Z,0.4957
2023-04-20T11:10:21.506Z,0.5007
2023-04-20T11:11:24.387Z,0.5059
2023-04-20T11:12:27.396Z,0.4931
2023-04-20T11:13:30.314Z,0.4848
2023-04-20T11:14:33.237Z,0.4867
2023-04-20T11:15:36.186Z,0.4853
2023-04-20T11:17:42.153Z,0.4989
2023-04-20T11:18:45.046Z,0.4940
2023-04-20T11:19:48.006Z,0.4871
2023-04-20T11:20:50.954Z,0.5050
2023-04-20T11:21:53.891Z,0.5208
2023-04-20T11:22:56.917Z,0.5180
2023-04-20T11:23:59.846Z,0.5157
2023-04-20T11:25:02.864Z,0.5173
2023-04-20T11:26:05.747Z,0.4979
2023-04-20T11:27:08.712Z,0.5132
2023-04-20T11:28:11.709Z,0.4989
2023-04-20T11:29:14.688Z,0.5040
2023-04-20T11:30:17.565Z,0.5121
2023-04-20T11:31:20.550Z,0.5086
2023-04-20T11:32:23.617Z,0.5058
2023-04-20T11:33:26.376Z,0.5022
2023-04-20T11:34:29.315Z,0.5022
2023-04-20T11:35:32.278Z,0.5036
2023-04-20T11:36:35.263Z,0.4964
2023-04-20T11:37:38.171Z,0.5087
2023-04-20T11:38:41.085Z,0.5102
2023-04-20T11:39:44.038Z,0.5110
2023-04-20T11:40:47.045Z,0.4779
2023-04-20T11:41:49.960Z,0.4891
2023-04-20T11:42:52.867Z,0.5041
2023-04-20T11:43:55.839Z,0.5025
2023-04-20T11:44:59.001Z,0.4913
2023-04-20T11:46:01.928Z,0.4737
2023-04-20T11:47:04.673Z,0.4839
2023-04-20T11:48:07.777Z,0.5018
2023-04-20T11:49:10.560Z,0.5135
2023-04-20T11:50:13.492Z,0.5164
2023-04-20T11:51:16.493Z,0.4875
2023-04-20T11:52:19.376Z,0.4767
2023-04-20T11:53:22.356Z,0.4667
2023-04-20T11:54:25.268Z,0.4959
2023-04-20T11:55:28.276Z,0.4886
2023-04-20T11:56:31.190Z,0.4868
2023-04-20T11:57:34.115Z,0.4936
2023-04-20T11:58:37.102Z,0.5111
2023-04-20T11:59:39.989Z,0.4808
2023-04-20T12:00:42.951Z,0.4729
2023-04-20T12:01:45.927Z,0.4808
2023-04-20T12:02:48.909Z,0.5039
2023-04-20T12:03:52.172Z,0.5150
2023-04-20T12:04:54.809Z,0.4946
2023-04-20T12:05:57.649Z,0.4788
2023-04-20T12:07:00.616Z,0.4931
2023-04-20T12:08:03.665Z,0.4964
2023-04-20T12:09:06.560Z,0.4795
2023-04-20T12:10:09.447Z,0.4958
2023-04-20T12:11:12.338Z,0.4975
2023-04-20T12:12:15.312Z,0.4935
2023-04-20T12:13:18.276Z,0.5163
2023-04-20T12:14:21.175Z,0.5195
2023-04-20T12:15:24.154Z,0.5210
2023-04-20T12:16:27.119Z,0.5028
2023-04-20T12:17:30.080Z,0.5162
2023-04-20T12:18:32.977Z,0.5014
2023-04-20T12:19:36.029Z,0.5164
2023-04-20T12:20:38.886Z,0.5104
2023-04-20T12:21:41.828Z,0.4905
2023-04-20T12:22:44.757Z,0.4801
2023-04-20T12:23:47.713Z,0.4757
2023-04-20T12:24:50.672Z,0.4857
2023-04-20T12:25:53.658Z,0.4834
2023-04-20T12:26:56.578Z,0.4779
2023-04-20T12:27:59.576Z,0.4725
2023-04-20T12:29:02.447Z,0.4654
2023-04-20T12:30:05.392Z,0.4721
2023-04-20T12:31:08.471Z,0.4857
2023-04-20T12:32:11.284Z,0.5020
2023-04-20T12:33:14.332Z,0.4981
2023-04-20T12:34:17.541Z,0.4928
2023-04-20T12:35:20.175Z,0.4915
2023-04-20T12:36:23.088Z,0.5155
2023-04-20T12:37:26.030Z,0.5015
2023-04-20T12:38:28.978Z,0.4992
2023-04-20T12:39:31.954Z,0.5104
2023-04-20T12:40:34.890Z,0.4981
2023-04-20T12:41:37.835Z,0.4769
2023-04-20T12:42:40.828Z,0.4856
2023-04-20T12:43:43.800Z,0.5124
2023-04-20T12:44:46.730Z,0.5103
2023-04-20T12:45:49.628Z,0.5206
2023-04-20T12:46:52.680Z,0.5238
2023-04-20T12:47:57.847Z,0.5253
2023-04-20T12:48:58.760Z,0.5244
2023-04-20T12:50:01.537Z,0.5020
2023-04-20T12:51:04.421Z,0.4957
2023-04-20T12:52:08.250Z,0.4967
2023-04-20T12:53:10.288Z,0.4941
2023-04-20T12:54:13.252Z,0.4911
2023-04-20T12:55:16.187Z,0.4841
2023-04-20T12:56:19.136Z,0.4929
2023-04-20T12:57:22.107Z,0.4999
2023-04-20T12:58:25.041Z,0.5065
2023-04-20T12:59:27.985Z,0.5190
2023-04-20T13:00:30.957Z,0.5248
2023-04-20T13:01:34.014Z,0.5199
2023-04-20T13:02:37.073Z,0.5056
2023-04-20T13:03:39.929Z,0.4810
2023-04-20T13:04:42.790Z,0.4830
2023-04-20T13:05:45.689Z,0.4844
2023-04-20T13:06:48.705Z,0.4978